sensor_id;sensor_type;location;lat;lon;timestamp;P1;P4;P2;P0;N10;N4;N25;N1;N05;TS
78521;SPS30;67819;51.972;5.678;2024-01-15T00:01:44;2.3;2.1;1.8;1.2;;;;15.0;11.0;
78521;SPS30;67819;51.972;5.678;2024-01-15T00:04:13;2.8;2.6;2.1;1.4;;;;15.0;11.0;
78521;SPS30;67819;51.972;5.678;2024-01-15T00:06:42;3.0;2.8;2.2;1.5;;;;16.0;11.0;
78521;SPS30;67819;51.972;5.678;2024-01-15T00:09:10;2.6;2.4;1.9;1.3;;;;16.0;11.0;
78521;SPS30;67819;51.972;5.678;2024-01-15T00:11:39;2.0;1.8;1.5;1.0;;;;16.0;11.0;
78521;SPS30;67819;51.972;5.678;2024-01-15T00:14:08;2.7;2.5;2.0;1.3;;;;17.0;11.0;
78521;SPS30;67819;51.972;5.678;2024-01-15T00:16:39;2.4;2.2;1.8;1.3;;;;17.0;10.0;
78521;SPS30;67819;51.972;5.678;2024-01-15T00:19:08;2.1;1.9;1.5;1.1;;;;18.0;10.0;
78521;SPS30;67819;51.972;5.678;2024-01-15T00:21:37;2.5;2.2;1.8;1.2;;;;18.0;10.0;
78521;SPS30;67819;51.972;5.678;2024-01-15T00:24:05;2.4;2.2;1.8;1.2;;;;19.0;10.0;
78521;SPS30;67819;51.972;5.678;2024-01-15T00:26:34;3.1;2.8;2.2;1.5;;;;19.0;10.0;
78521;SPS30;67819;51.972;5.678;2024-01-15T00:29:03;2.4;2.2;1.7;1.1;;;;20.0;10.0;
78521;SPS30;67819;51.972;5.678;2024-01-15T00:31:32;2.7;2.4;1.9;1.2;;;;20.0;10.0;
78521;SPS30;67819;51.972;5.678;2024-01-15T00:34:02;2.0;1.8;1.4;0.9;;;;20.0;10.0;
78521;SPS30;67819;51.972;5.678;2024-01-15T00:36:31;2.8;2.5;2.0;1.2;;;;20.0;10.0;
78521;SPS30;67819;51.972;5.678;2024-01-15T00:39:00;2.5;2.2;1.8;1.1;;;;21.0;11.0;
78521;SPS30;67819;51.972;5.678;2024-01-15T00:41:31;2.1;1.9;1.5;0.9;;;;21.0;11.0;
78521;SPS30;67819;51.972;5.678;2024-01-15T00:44:00;2.7;2.4;1.8;1.1;;;;21.0;11.0;
78521;SPS30;67819;51.972;5.678;2024-01-15T00:46:29;2.6;2.3;1.8;1.1;;;;22.0;12.0;
78521;SPS30;67819;51.972;5.678;2024-01-15T00:48:57;2.9;2.6;2.0;1.2;;;;22.0;12.0;
78521;SPS30;67819;51.972;5.678;2024-01-15T00:51:26;2.6;2.4;1.8;1.1;;;;22.0;13.0;
78521;SPS30;67819;51.972;5.678;2024-01-15T00:53:54;3.3;3.0;2.3;1.4;;;;22.0;13.0;
78521;SPS30;67819;51.972;5.678;2024-01-15T00:56:23;3.2;2.9;2.2;1.4;;;;22.0;13.0;
78521;SPS30;67819;51.972;5.678;2024-01-15T00:58:51;3.0;2.8;2.2;1.4;;;;22.0;14.0;
78521;SPS30;67819;51.972;5.678;2024-01-15T01:01:20;3.2;2.9;2.2;1.4;;;;22.0;14.0;
78521;SPS30;67819;51.972;5.678;2024-01-15T01:03:48;2.6;2.4;1.9;1.2;;;;22.0;14.0;
78521;SPS30;67819;51.972;5.678;2024-01-15T01:06:17;3.1;2.8;2.3;1.5;;;;22.0;15.0;
78521;SPS30;67819;51.972;5.678;2024-01-15T01:08:45;2.8;2.5;2.0;1.2;;;;22.0;16.0;
78521;SPS30;67819;51.972;5.678;2024-01-15T01:11:14;2.8;2.5;2.0;1.2;;;;22.0;16.0;
78521;SPS30;67819;51.972;5.678;2024-01-15T01:13:43;3.6;3.3;2.5;1.5;;;;22.0;17.0;
78521;SPS30;67819;51.972;5.678;2024-01-15T01:16:12;3.2;2.9;2.2;1.3;;;;22.0;17.0;
78521;SPS30;67819;51.972;5.678;2024-01-15T01:18:41;4.1;3.6;2.7;1.6;;;;22.0;18.0;
78521;SPS30;67819;51.972;5.678;2024-01-15T01:21:09;3.7;3.3;2.5;1.5;;;;22.0;19.0;
78521;SPS30;67819;51.972;5.678;2024-01-15T01:23:38;3.8;3.4;2.6;1.6;;;;22.0;20.0;
78521;SPS30;67819;51.972;5.678;2024-01-15T01:26:06;3.0;2.7;2.1;1.3;;;;22.0;21.0;
78521;SPS30;67819;51.972;5.678;2024-01-15T01:28:35;3.7;3.4;2.6;1.5;;;;22.0;21.0;
78521;SPS30;67819;51.972;5.678;2024-01-15T01:31:04;4.4;3.9;3.0;1.8;;;;22.0;22.0;
78521;SPS30;67819;51.972;5.678;2024-01-15T01:33:34;3.5;3.2;2.4;1.4;;;;21.0;22.0;
78521;SPS30;67819;51.972;5.678;2024-01-15T01:36:03;3.4;3.0;2.3;1.4;;;;21.0;22.0;
78521;SPS30;67819;51.972;5.678;2024-01-15T01:38:35;3.9;3.5;2.6;1.5;;;;21.0;22.0;
78521;SPS30;67819;51.972;5.678;2024-01-15T01:41:04;4.1;3.6;2.7;1.5;;;;21.0;22.0;
78521;SPS30;67819;51.972;5.678;2024-01-15T01:43:32;4.9;4.3;3.2;1.8;;;;21.0;22.0;
78521;SPS30;67819;51.972;5.678;2024-01-15T01:46:01;4.4;3.9;2.9;1.6;;;;21.0;22.0;
78521;SPS30;67819;51.972;5.678;2024-01-15T01:48:31;5.7;5.1;3.8;2.2;;;;21.0;22.0;
78521;SPS30;67819;51.972;5.678;2024-01-15T01:56:19;5.2;4.7;3.4;1.8;;;;21.0;21.0;
78521;SPS30;67819;51.972;5.678;2024-01-15T01:58:47;5.2;4.6;3.4;1.8;;;;22.0;22.0;
78521;SPS30;67819;51.972;5.678;2024-01-15T02:01:17;5.6;5.0;3.8;2.1;;;;22.0;22.0;
78521;SPS30;67819;51.972;5.678;2024-01-15T02:03:47;4.2;3.7;2.7;1.5;;;;22.0;22.0;
78521;SPS30;67819;51.972;5.678;2024-01-15T02:06:16;4.3;3.8;2.8;1.5;;;;22.0;22.0;
78521;SPS30;67819;51.972;5.678;2024-01-15T02:08:47;4.4;4.0;2.9;1.6;;;;23.0;22.0;
78521;SPS30;67819;51.972;5.678;2024-01-15T02:11:16;5.5;4.8;3.5;1.9;;;;23.0;23.0;
78521;SPS30;67819;51.972;5.678;2024-01-15T02:13:44;5.1;4.5;3.3;1.8;;;;23.0;24.0;
78521;SPS30;67819;51.972;5.678;2024-01-15T02:16:13;4.3;3.8;2.8;1.5;;;;23.0;24.0;
78521;SPS30;67819;51.972;5.678;2024-01-15T02:18:42;4.5;4.0;3.0;1.6;;;;23.0;24.0;
78521;SPS30;67819;51.972;5.678;2024-01-15T02:21:12;4.6;4.1;3.0;1.6;;;;23.0;24.0;
78521;SPS30;67819;51.972;5.678;2024-01-15T02:23:40;5.0;4.4;3.3;1.7;;;;23.0;23.0;
78521;SPS30;67819;51.972;5.678;2024-01-15T02:26:11;5.1;4.5;3.3;1.7;;;;23.0;23.0;
78521;SPS30;67819;51.972;5.678;2024-01-15T02:28:40;4.5;4.0;2.9;1.6;;;;23.0;24.0;
78521;SPS30;67819;51.972;5.678;2024-01-15T02:31:11;5.1;4.6;3.4;1.8;;;;23.0;24.0;
78521;SPS30;67819;51.972;5.678;2024-01-15T02:33:40;6.2;5.5;4.0;2.1;;;;23.0;24.0;
78521;SPS30;67819;51.972;5.678;2024-01-15T02:36:09;4.2;3.7;2.7;1.5;;;;23.0;24.0;
78521;SPS30;67819;51.972;5.678;2024-01-15T02:38:37;4.1;3.6;2.7;1.4;;;;23.0;24.0;
78521;SPS30;67819;51.972;5.678;2024-01-15T02:41:06;5.6;5.0;3.7;2.0;;;;23.0;24.0;
78521;SPS30;67819;51.972;5.678;2024-01-15T02:43:37;3.9;3.5;2.6;1.4;;;;23.0;24.0;
78521;SPS30;67819;51.972;5.678;2024-01-15T02:46:05;3.6;3.2;2.4;1.3;;;;23.0;24.0;
78521;SPS30;67819;51.972;5.678;2024-01-15T02:48:34;5.7;5.1;3.7;2.0;;;;23.0;24.0;
78521;SPS30;67819;51.972;5.678;2024-01-15T02:51:03;4.7;4.2;3.0;1.6;;;;23.0;24.0;
78521;SPS30;67819;51.972;5.678;2024-01-15T02:53:31;4.5;4.0;2.9;1.5;;;;23.0;24.0;
78521;SPS30;67819;51.972;5.678;2024-01-15T02:56:00;5.0;4.4;3.2;1.7;;;;23.0;24.0;
78521;SPS30;67819;51.972;5.678;2024-01-15T02:58:28;4.8;4.2;3.1;1.6;;;;22.0;24.0;
78521;SPS30;67819;51.972;5.678;2024-01-15T03:00:57;4.6;4.1;3.0;1.6;;;;22.0;24.0;
78521;SPS30;67819;51.972;5.678;2024-01-15T03:03:26;4.2;3.8;2.8;1.5;;;;22.0;24.0;
78521;SPS30;67819;51.972;5.678;2024-01-15T03:05:54;4.8;4.2;3.1;1.6;;;;22.0;23.0;
78521;SPS30;67819;51.972;5.678;2024-01-15T03:08:23;5.5;4.8;3.5;1.8;;;;21.0;23.0;
78521;SPS30;67819;51.972;5.678;2024-01-15T03:10:51;3.4;3.0;2.1;1.0;;;;21.0;22.0;
78521;SPS30;67819;51.972;5.678;2024-01-15T03:13:22;4.3;3.8;2.7;1.3;;;;21.0;22.0;
78521;SPS30;67819;51.972;5.678;2024-01-15T03:15:50;3.9;3.4;2.4;1.2;;;;21.0;22.0;
78521;SPS30;67819;51.972;5.678;2024-01-15T03:18:21;4.0;3.5;2.5;1.3;;;;21.0;23.0;
78521;SPS30;67819;51.972;5.678;2024-01-15T03:20:49;3.7;3.2;2.4;1.2;;;;21.0;24.0;
78521;SPS30;67819;51.972;5.678;2024-01-15T03:23:18;4.6;4.1;3.0;1.7;;;;21.0;25.0;
78521;SPS30;67819;51.972;5.678;2024-01-15T03:25:46;5.2;4.6;3.4;1.8;;;;20.0;26.0;
78521;SPS30;67819;51.972;5.678;2024-01-15T03:28:15;4.4;3.9;2.8;1.4;;;;20.0;26.0;
78521;SPS30;67819;51.972;5.678;2024-01-15T03:30:44;4.7;4.2;3.0;1.5;;;;20.0;26.0;
78521;SPS30;67819;51.972;5.678;2024-01-15T03:33:13;5.6;5.0;3.6;1.9;;;;19.0;27.0;
78521;SPS30;67819;51.972;5.678;2024-01-15T03:35:41;4.4;3.9;2.8;1.5;;;;19.0;28.0;
78521;SPS30;67819;51.972;5.678;2024-01-15T03:38:10;5.0;4.4;3.2;1.7;;;;19.0;28.0;
78521;SPS30;67819;51.972;5.678;2024-01-15T03:40:38;4.1;3.6;2.6;1.3;;;;19.0;30.0;
78521;SPS30;67819;51.972;5.678;2024-01-15T03:43:07;5.1;4.5;3.3;1.7;;;;18.0;31.0;
78521;SPS30;67819;51.972;5.678;2024-01-15T03:45:36;5.7;5.1;3.7;1.9;;;;18.0;33.0;
78521;SPS30;67819;51.972;5.678;2024-01-15T03:48:04;3.8;3.3;2.4;1.3;;;;18.0;35.0;
78521;SPS30;67819;51.972;5.678;2024-01-15T03:50:33;4.6;4.1;3.0;1.6;;;;17.0;36.0;
78521;SPS30;67819;51.972;5.678;2024-01-15T03:53:02;4.3;3.8;2.8;1.5;;;;17.0;38.0;
78521;SPS30;67819;51.972;5.678;2024-01-15T03:55:31;4.1;3.7;2.7;1.5;;;;17.0;39.0;
78521;SPS30;67819;51.972;5.678;2024-01-15T03:58:02;4.1;3.7;2.7;1.5;;;;17.0;40.0;
78521;SPS30;67819;51.972;5.678;2024-01-15T04:00:31;4.2;3.8;2.9;1.7;;;;17.0;40.0;
78521;SPS30;67819;51.972;5.678;2024-01-15T04:02:59;3.8;3.4;2.6;1.5;;;;17.0;40.0;
78521;SPS30;67819;51.972;5.678;2024-01-15T04:05:28;3.2;2.8;2.2;1.3;;;;17.0;40.0;
78521;SPS30;67819;51.972;5.678;2024-01-15T04:07:56;3.3;3.0;2.3;1.4;;;;17.0;40.0;
78521;SPS30;67819;51.972;5.678;2024-01-15T04:10:25;3.5;3.1;2.4;1.4;;;;17.0;41.0;
78521;SPS30;67819;51.972;5.678;2024-01-15T04:12:53;4.0;3.6;2.7;1.6;;;;17.0;41.0;
78521;SPS30;67819;51.972;5.678;2024-01-15T04:15:25;4.0;3.6;2.7;1.5;;;;16.0;41.0;
78521;SPS30;67819;51.972;5.678;2024-01-15T04:17:54;3.6;3.2;2.4;1.4;;;;16.0;42.0;
78521;SPS30;67819;51.972;5.678;2024-01-15T04:20:23;3.7;3.3;2.5;1.4;;;;16.0;43.0;
78521;SPS30;67819;51.972;5.678;2024-01-15T04:22:52;4.1;3.7;2.8;1.6;;;;16.0;47.0;
78521;SPS30;67819;51.972;5.678;2024-01-15T04:25:20;2.9;2.6;2.0;1.1;;;;16.0;51.0;
78521;SPS30;67819;51.972;5.678;2024-01-15T04:27:49;3.6;3.3;2.5;1.5;;;;16.0;50.0;
78521;SPS30;67819;51.972;5.678;2024-01-15T04:30:18;4.1;3.7;2.8;1.6;;;;15.0;50.0;
78521;SPS30;67819;51.972;5.678;2024-01-15T04:32:46;4.5;4.1;3.0;1.7;;;;15.0;49.0;
78521;SPS30;67819;51.972;5.678;2024-01-15T04:35:17;4.0;3.6;2.7;1.5;;;;15.0;48.0;
78521;SPS30;67819;51.972;5.678;2024-01-15T04:37:45;3.3;2.9;2.2;1.2;;;;15.0;46.0;
78521;SPS30;67819;51.972;5.678;2024-01-15T04:40:14;3.5;3.1;2.3;1.3;;;;15.0;46.0;
78521;SPS30;67819;51.972;5.678;2024-01-15T04:42:43;3.5;3.2;2.4;1.4;;;;15.0;46.0;
78521;SPS30;67819;51.972;5.678;2024-01-15T04:45:13;3.1;2.8;2.1;1.1;;;;15.0;47.0;
78521;SPS30;67819;51.972;5.678;2024-01-15T04:47:44;3.5;3.1;2.3;1.3;;;;14.0;50.0;
78521;SPS30;67819;51.972;5.678;2024-01-15T04:50:13;3.7;3.3;2.5;1.5;;;;14.0;53.0;
78521;SPS30;67819;51.972;5.678;2024-01-15T04:52:41;3.0;2.7;2.0;1.2;;;;14.0;54.0;
78521;SPS30;67819;51.972;5.678;2024-01-15T04:55:10;4.2;3.7;2.8;1.6;;;;14.0;54.0;
78521;SPS30;67819;51.972;5.678;2024-01-15T04:57:41;4.0;3.6;2.7;1.6;;;;13.0;55.0;
78521;SPS30;67819;51.972;5.678;2024-01-15T05:00:10;3.3;2.9;2.2;1.2;;;;13.0;55.0;
78521;SPS30;67819;51.972;5.678;2024-01-15T05:02:40;3.7;3.3;2.4;1.3;;;;13.0;56.0;
78521;SPS30;67819;51.972;5.678;2024-01-15T05:05:09;4.5;4.0;3.0;1.6;;;;13.0;56.0;
78521;SPS30;67819;51.972;5.678;2024-01-15T05:07:38;3.4;3.0;2.3;1.3;;;;13.0;57.0;
78521;SPS30;67819;51.972;5.678;2024-01-15T05:10:07;3.1;2.8;2.1;1.2;;;;13.0;58.0;
78521;SPS30;67819;51.972;5.678;2024-01-15T05:12:35;3.5;3.2;2.4;1.4;;;;13.0;58.0;
78521;SPS30;67819;51.972;5.678;2024-01-15T05:15:04;4.0;3.6;2.7;1.5;;;;13.0;54.0;
78521;SPS30;67819;51.972;5.678;2024-01-15T05:17:33;3.2;2.9;2.2;1.2;;;;13.0;52.0;
78521;SPS30;67819;51.972;5.678;2024-01-15T05:20:01;2.8;2.5;1.9;1.1;;;;13.0;51.0;
78521;SPS30;67819;51.972;5.678;2024-01-15T05:22:30;2.5;2.2;1.7;0.9;;;;14.0;50.0;
78521;SPS30;67819;51.972;5.678;2024-01-15T05:24:59;2.9;2.5;1.9;1.0;;;;14.0;47.0;
78521;SPS30;67819;51.972;5.678;2024-01-15T05:27:27;2.4;2.1;1.6;0.9;;;;14.0;45.0;
78521;SPS30;67819;51.972;5.678;2024-01-15T05:29:56;3.5;3.2;2.4;1.3;;;;15.0;42.0;
78521;SPS30;67819;51.972;5.678;2024-01-15T05:32:25;2.8;2.5;1.9;1.1;;;;15.0;42.0;
78521;SPS30;67819;51.972;5.678;2024-01-15T05:34:56;3.0;2.7;2.0;1.2;;;;15.0;42.0;
78521;SPS30;67819;51.972;5.678;2024-01-15T05:37:25;2.1;1.9;1.4;0.8;;;;16.0;41.0;
78521;SPS30;67819;51.972;5.678;2024-01-15T05:39:53;3.1;2.8;2.1;1.3;;;;16.0;40.0;
78521;SPS30;67819;51.972;5.678;2024-01-15T05:42:22;3.2;2.9;2.3;1.4;;;;16.0;40.0;
78521;SPS30;67819;51.972;5.678;2024-01-15T05:44:51;2.7;2.5;1.9;1.2;;;;16.0;41.0;
78521;SPS30;67819;51.972;5.678;2024-01-15T05:47:21;2.1;1.9;1.5;1.0;;;;16.0;41.0;
78521;SPS30;67819;51.972;5.678;2024-01-15T05:49:52;2.2;2.0;1.6;1.0;;;;16.0;41.0;
78521;SPS30;67819;51.972;5.678;2024-01-15T05:52:20;2.1;1.9;1.5;1.0;;;;16.0;40.0;
78521;SPS30;67819;51.972;5.678;2024-01-15T05:54:49;2.2;2.0;1.6;1.0;;;;16.0;40.0;
78521;SPS30;67819;51.972;5.678;2024-01-15T05:57:18;2.0;1.8;1.4;0.9;;;;16.0;39.0;
78521;SPS30;67819;51.972;5.678;2024-01-15T05:59:49;1.8;1.6;1.3;0.9;;;;16.0;38.0;
78521;SPS30;67819;51.972;5.678;2024-01-15T06:02:18;1.7;1.6;1.3;0.9;;;;16.0;37.0;
78521;SPS30;67819;51.972;5.678;2024-01-15T06:04:46;2.0;1.8;1.4;1.0;;;;16.0;37.0;
78521;SPS30;67819;51.972;5.678;2024-01-15T06:07:15;1.6;1.4;1.2;0.8;;;;16.0;36.0;
78521;SPS30;67819;51.972;5.678;2024-01-15T06:09:44;1.9;1.7;1.4;1.0;;;;16.0;35.0;
78521;SPS30;67819;51.972;5.678;2024-01-15T06:12:12;1.7;1.6;1.3;0.9;;;;16.0;35.0;
78521;SPS30;67819;51.972;5.678;2024-01-15T06:14:41;2.1;1.9;1.6;1.1;;;;16.0;36.0;
78521;SPS30;67819;51.972;5.678;2024-01-15T06:17:09;1.7;1.6;1.4;1.0;;;;16.0;38.0;
78521;SPS30;67819;51.972;5.678;2024-01-15T06:19:38;1.4;1.4;1.2;1.0;;;;16.0;43.0;
78521;SPS30;67819;51.972;5.678;2024-01-15T06:22:07;1.6;1.5;1.4;1.2;;;;16.0;46.0;
78521;SPS30;67819;51.972;5.678;2024-01-15T06:24:35;1.9;1.9;1.7;1.5;;;;16.0;46.0;
78521;SPS30;67819;51.972;5.678;2024-01-15T06:27:04;2.6;2.5;2.4;2.1;;;;16.0;53.0;
78521;SPS30;67819;51.972;5.678;2024-01-15T06:29:33;2.7;2.7;2.7;2.5;;;;15.0;56.0;
78521;SPS30;67819;51.972;5.678;2024-01-15T06:32:05;3.9;3.9;3.9;3.7;;;;15.0;58.0;
78521;SPS30;67819;51.972;5.678;2024-01-15T06:34:34;3.7;3.7;3.7;3.6;;;;15.0;66.0;
78521;SPS30;67819;51.972;5.678;2024-01-15T06:37:03;4.5;4.5;4.5;4.3;;;;14.0;71.0;
78521;SPS30;67819;51.972;5.678;2024-01-15T06:39:31;4.6;4.6;4.6;4.4;;;;14.0;74.0;
78521;SPS30;67819;51.972;5.678;2024-01-15T06:42:00;5.1;5.1;5.1;4.9;;;;13.0;77.0;
78521;SPS30;67819;51.972;5.678;2024-01-15T06:44:28;5.2;5.2;5.2;5.0;;;;12.0;87.0;
78521;SPS30;67819;51.972;5.678;2024-01-15T06:46:57;4.4;4.4;4.4;4.2;;;;12.0;96.0;
78521;SPS30;67819;51.972;5.678;2024-01-15T06:49:28;4.6;4.6;4.6;4.4;;;;11.0;103.0;
78521;SPS30;67819;51.972;5.678;2024-01-15T06:51:57;3.9;3.9;3.9;3.7;;;;11.0;126.0;
78521;SPS30;67819;51.972;5.678;2024-01-15T06:54:25;3.6;3.6;3.6;3.4;;;;10.0;111.0;
78521;SPS30;67819;51.972;5.678;2024-01-15T06:56:56;3.7;3.7;3.7;3.6;;;;10.0;108.0;
78521;SPS30;67819;51.972;5.678;2024-01-15T06:59:25;2.9;2.9;2.9;2.7;;;;10.0;106.0;
78521;SPS30;67819;51.972;5.678;2024-01-15T07:01:53;3.5;3.5;3.5;3.3;;;;10.0;105.0;
78521;SPS30;67819;51.972;5.678;2024-01-15T07:04:23;2.9;2.9;2.9;2.8;;;;9.0;104.0;
78521;SPS30;67819;51.972;5.678;2024-01-15T07:06:51;3.1;3.1;3.1;3.0;;;;9.0;104.0;
78521;SPS30;67819;51.972;5.678;2024-01-15T07:09:20;3.5;3.5;3.5;3.4;;;;9.0;104.0;
78521;SPS30;67819;51.972;5.678;2024-01-15T07:11:49;3.3;3.3;3.3;3.1;;;;9.0;114.0;
78521;SPS30;67819;51.972;5.678;2024-01-15T07:14:17;3.5;3.5;3.5;3.4;;;;9.0;115.0;
78521;SPS30;67819;51.972;5.678;2024-01-15T07:16:48;3.1;3.1;3.1;2.9;;;;9.0;115.0;
78521;SPS30;67819;51.972;5.678;2024-01-15T07:19:16;3.5;3.5;3.5;3.4;;;;9.0;116.0;
78521;SPS30;67819;51.972;5.678;2024-01-15T07:21:45;4.0;4.0;4.0;3.8;;;;9.0;122.0;
78521;SPS30;67819;51.972;5.678;2024-01-15T07:24:13;2.5;2.5;2.5;2.4;;;;9.0;110.0;
78521;SPS30;67819;51.972;5.678;2024-01-15T07:26:42;3.0;3.0;3.0;2.8;;;;9.0;98.0;
78521;SPS30;67819;51.972;5.678;2024-01-15T07:29:10;2.7;2.7;2.7;2.6;;;;9.0;97.0;
78521;SPS30;67819;51.972;5.678;2024-01-15T07:31:39;2.7;2.7;2.7;2.5;;;;9.0;99.0;
78521;SPS30;67819;51.972;5.678;2024-01-15T07:34:07;2.5;2.5;2.5;2.4;;;;9.0;100.0;
78521;SPS30;67819;51.972;5.678;2024-01-15T07:36:36;2.2;2.2;2.2;2.1;;;;9.0;95.0;
78521;SPS30;67819;51.972;5.678;2024-01-15T07:39:05;2.3;2.3;2.3;2.2;;;;10.0;91.0;
78521;SPS30;67819;51.972;5.678;2024-01-15T07:41:33;2.7;2.7;2.7;2.6;;;;10.0;93.0;
78521;SPS30;67819;51.972;5.678;2024-01-15T07:44:04;2.6;2.6;2.6;2.5;;;;10.0;93.0;
78521;SPS30;67819;51.972;5.678;2024-01-15T07:46:33;3.1;3.1;3.1;3.0;;;;10.0;92.0;
78521;SPS30;67819;51.972;5.678;2024-01-15T07:49:01;2.5;2.5;2.5;2.4;;;;10.0;83.0;
78521;SPS30;67819;51.972;5.678;2024-01-15T07:51:32;2.5;2.5;2.5;2.4;;;;11.0;81.0;
78521;SPS30;67819;51.972;5.678;2024-01-15T07:54:01;2.8;2.8;2.8;2.7;;;;11.0;84.0;
78521;SPS30;67819;51.972;5.678;2024-01-15T07:56:30;2.6;2.6;2.6;2.5;;;;11.0;84.0;
78521;SPS30;67819;51.972;5.678;2024-01-15T07:58:58;2.4;2.4;2.4;2.2;;;;11.0;77.0;
78521;SPS30;67819;51.972;5.678;2024-01-15T08:01:29;2.4;2.4;2.4;2.3;;;;11.0;74.0;
78521;SPS30;67819;51.972;5.678;2024-01-15T08:03:57;2.2;2.2;2.2;2.1;;;;11.0;71.0;
78521;SPS30;67819;51.972;5.678;2024-01-15T08:06:26;2.4;2.4;2.4;2.3;;;;12.0;72.0;
78521;SPS30;67819;51.972;5.678;2024-01-15T08:08:54;2.9;2.9;2.9;2.7;;;;12.0;75.0;
78521;SPS30;67819;51.972;5.678;2024-01-15T08:11:23;2.5;2.5;2.5;2.4;;;;12.0;80.0;
78521;SPS30;67819;51.972;5.678;2024-01-15T08:13:52;2.6;2.6;2.6;2.5;;;;12.0;82.0;
78521;SPS30;67819;51.972;5.678;2024-01-15T08:16:20;2.6;2.6;2.6;2.5;;;;12.0;82.0;
78521;SPS30;67819;51.972;5.678;2024-01-15T08:18:50;3.0;3.0;3.0;2.9;;;;12.0;84.0;
78521;SPS30;67819;51.972;5.678;2024-01-15T08:21:21;3.1;3.1;3.1;2.9;;;;12.0;85.0;
78521;SPS30;67819;51.972;5.678;2024-01-15T08:23:49;3.0;3.0;3.0;2.9;;;;12.0;86.0;
78521;SPS30;67819;51.972;5.678;2024-01-15T08:26:18;3.1;3.1;3.1;3.0;;;;12.0;86.0;
78521;SPS30;67819;51.972;5.678;2024-01-15T08:28:47;2.8;2.8;2.8;2.7;;;;12.0;83.0;
78521;SPS30;67819;51.972;5.678;2024-01-15T08:31:16;2.8;2.8;2.8;2.7;;;;12.0;82.0;
78521;SPS30;67819;51.972;5.678;2024-01-15T08:33:45;3.0;3.0;3.0;2.8;;;;12.0;104.0;
78521;SPS30;67819;51.972;5.678;2024-01-15T08:36:14;2.7;2.7;2.7;2.6;;;;12.0;96.0;
78521;SPS30;67819;51.972;5.678;2024-01-15T08:38:42;3.2;3.2;3.2;3.0;;;;12.0;90.0;
78521;SPS30;67819;51.972;5.678;2024-01-15T08:41:11;3.4;3.4;3.4;3.2;;;;12.0;87.0;
78521;SPS30;67819;51.972;5.678;2024-01-15T08:43:39;3.5;3.5;3.5;3.3;;;;12.0;85.0;
78521;SPS30;67819;51.972;5.678;2024-01-15T08:46:08;3.4;3.4;3.4;3.3;;;;12.0;84.0;
78521;SPS30;67819;51.972;5.678;2024-01-15T08:48:38;3.4;3.4;3.4;3.3;;;;12.0;81.0;
78521;SPS30;67819;51.972;5.678;2024-01-15T08:51:07;3.2;3.2;3.2;3.0;;;;12.0;81.0;
78521;SPS30;67819;51.972;5.678;2024-01-15T08:53:36;3.7;3.7;3.7;3.6;;;;12.0;81.0;
78521;SPS30;67819;51.972;5.678;2024-01-15T08:56:05;3.4;3.4;3.4;3.2;;;;12.0;86.0;
78521;SPS30;67819;51.972;5.678;2024-01-15T08:58:34;3.8;3.8;3.8;3.6;;;;12.0;93.0;
78521;SPS30;67819;51.972;5.678;2024-01-15T09:01:03;3.4;3.4;3.4;3.3;;;;11.0;103.0;
78521;SPS30;67819;51.972;5.678;2024-01-15T09:03:31;3.4;3.4;3.4;3.3;;;;11.0;101.0;
78521;SPS30;67819;51.972;5.678;2024-01-15T09:06:01;3.8;3.8;3.8;3.6;;;;11.0;99.0;
78521;SPS30;67819;51.972;5.678;2024-01-15T09:08:29;3.5;3.5;3.5;3.3;;;;10.0;98.0;
78521;SPS30;67819;51.972;5.678;2024-01-15T09:10:58;3.6;3.6;3.6;3.4;;;;10.0;98.0;
78521;SPS30;67819;51.972;5.678;2024-01-15T09:13:29;3.2;3.2;3.2;3.1;;;;10.0;100.0;
78521;SPS30;67819;51.972;5.678;2024-01-15T09:15:57;3.3;3.3;3.3;3.2;;;;10.0;99.0;
78521;SPS30;67819;51.972;5.678;2024-01-15T09:18:28;2.2;2.2;2.2;2.1;;;;9.0;97.0;
78521;SPS30;67819;51.972;5.678;2024-01-15T09:20:56;2.1;2.1;2.1;2.0;;;;9.0;92.0;
78521;SPS30;67819;51.972;5.678;2024-01-15T09:23:27;2.1;2.1;2.1;2.0;;;;9.0;82.0;
78521;SPS30;67819;51.972;5.678;2024-01-15T09:25:55;2.1;2.1;2.0;1.9;;;;9.0;79.0;
78521;SPS30;67819;51.972;5.678;2024-01-15T09:28:24;1.3;1.3;1.2;1.1;;;;9.0;88.0;
78521;SPS30;67819;51.972;5.678;2024-01-15T09:30:52;1.8;1.7;1.7;1.6;;;;9.0;81.0;
78521;SPS30;67819;51.972;5.678;2024-01-15T09:33:21;1.3;1.3;1.2;1.1;;;;9.0;63.0;
78521;SPS30;67819;51.972;5.678;2024-01-15T09:35:49;1.6;1.6;1.5;1.3;;;;10.0;56.0;
78521;SPS30;67819;51.972;5.678;2024-01-15T09:38:18;2.0;2.0;1.8;1.5;;;;10.0;53.0;
78521;SPS30;67819;51.972;5.678;2024-01-15T09:40:47;1.5;1.5;1.4;1.2;;;;10.0;52.0;
78521;SPS30;67819;51.972;5.678;2024-01-15T09:43:19;1.5;1.4;1.3;1.1;;;;10.0;50.0;
78521;SPS30;67819;51.972;5.678;2024-01-15T09:45:48;1.8;1.8;1.6;1.4;;;;10.0;48.0;
78521;SPS30;67819;51.972;5.678;2024-01-15T09:48:18;2.1;2.0;1.9;1.6;;;;10.0;46.0;
78521;SPS30;67819;51.972;5.678;2024-01-15T09:50:47;1.7;1.6;1.5;1.3;;;;10.0;46.0;
78521;SPS30;67819;51.972;5.678;2024-01-15T09:53:16;1.2;1.2;1.1;0.9;;;;10.0;47.0;
78521;SPS30;67819;51.972;5.678;2024-01-15T09:55:46;1.0;1.0;0.9;0.8;;;;11.0;47.0;
78521;SPS30;67819;51.972;5.678;2024-01-15T09:58:17;1.3;1.2;1.1;1.0;;;;11.0;46.0;
78521;SPS30;67819;51.972;5.678;2024-01-15T10:00:47;1.8;1.7;1.6;1.3;;;;11.0;45.0;
78521;SPS30;67819;51.972;5.678;2024-01-15T10:03:17;1.6;1.5;1.4;1.2;;;;12.0;44.0;
78521;SPS30;67819;51.972;5.678;2024-01-15T10:05:47;1.3;1.3;1.2;1.0;;;;12.0;41.0;
78521;SPS30;67819;51.972;5.678;2024-01-15T10:08:17;1.4;1.4;1.2;1.1;;;;12.0;40.0;
78521;SPS30;67819;51.972;5.678;2024-01-15T10:10:51;1.7;1.7;1.5;1.3;;;;12.0;45.0;
78521;SPS30;67819;51.972;5.678;2024-01-15T10:13:19;1.9;1.8;1.6;1.4;;;;12.0;45.0;
78521;SPS30;67819;51.972;5.678;2024-01-15T10:15:52;2.2;2.1;1.9;1.6;;;;12.0;42.0;
78521;SPS30;67819;51.972;5.678;2024-01-15T10:18:21;2.1;2.0;1.8;1.5;;;;12.0;42.0;
78521;SPS30;67819;51.972;5.678;2024-01-15T10:20:49;2.4;2.3;2.1;1.9;;;;12.0;42.0;
78521;SPS30;67819;51.972;5.678;2024-01-15T10:23:18;2.2;2.1;2.0;1.7;;;;12.0;42.0;
78521;SPS30;67819;51.972;5.678;2024-01-15T10:25:47;2.3;2.3;2.2;2.0;;;;11.0;43.0;
78521;SPS30;67819;51.972;5.678;2024-01-15T10:28:17;2.9;2.8;2.8;2.6;;;;11.0;48.0;
78521;SPS30;67819;51.972;5.678;2024-01-15T10:30:47;3.1;3.1;3.1;2.9;;;;11.0;52.0;
78521;SPS30;67819;51.972;5.678;2024-01-15T10:33:20;3.2;3.2;3.2;3.1;;;;11.0;63.0;
78521;SPS30;67819;51.972;5.678;2024-01-15T10:35:51;4.0;4.0;4.0;3.8;;;;10.0;76.0;
78521;SPS30;67819;51.972;5.678;2024-01-15T10:38:22;3.3;3.3;3.3;3.1;;;;10.0;84.0;
78521;SPS30;67819;51.972;5.678;2024-01-15T10:40:52;3.6;3.6;3.6;3.5;;;;10.0;90.0;
78521;SPS30;67819;51.972;5.678;2024-01-15T10:43:22;4.2;4.2;4.2;4.0;;;;9.0;90.0;
78521;SPS30;67819;51.972;5.678;2024-01-15T10:45:51;4.1;4.1;4.1;3.9;;;;9.0;94.0;
78521;SPS30;67819;51.972;5.678;2024-01-15T10:48:19;4.0;4.0;4.0;3.8;;;;9.0;95.0;
78521;SPS30;67819;51.972;5.678;2024-01-15T10:50:50;4.1;4.1;4.1;3.9;;;;8.0;95.0;
78521;SPS30;67819;51.972;5.678;2024-01-15T10:53:18;4.0;4.0;4.0;3.8;;;;8.0;97.0;
78521;SPS30;67819;51.972;5.678;2024-01-15T10:55:48;3.8;3.8;3.8;3.7;;;;7.0;125.0;
78521;SPS30;67819;51.972;5.678;2024-01-15T10:58:19;3.2;3.2;3.2;3.1;;;;7.0;133.0;
78521;SPS30;67819;51.972;5.678;2024-01-15T11:00:49;3.1;3.1;3.1;2.9;;;;6.0;120.0;
78521;SPS30;67819;51.972;5.678;2024-01-15T11:03:20;2.7;2.7;2.7;2.6;;;;6.0;115.0;
78521;SPS30;67819;51.972;5.678;2024-01-15T11:05:49;3.0;3.0;3.0;2.8;;;;5.0;112.0;
78521;SPS30;67819;51.972;5.678;2024-01-15T11:08:18;2.9;2.9;2.9;2.8;;;;5.0;112.0;
78521;SPS30;67819;51.972;5.678;2024-01-15T11:10:48;2.6;2.6;2.6;2.5;;;;5.0;112.0;
78521;SPS30;67819;51.972;5.678;2024-01-15T11:13:21;2.6;2.6;2.6;2.5;;;;5.0;113.0;
78521;SPS30;67819;51.972;5.678;2024-01-15T11:15:58;3.4;3.4;3.4;3.2;;;;5.0;113.0;
78521;SPS30;67819;51.972;5.678;2024-01-15T11:18:29;3.2;3.2;3.1;3.0;;;;5.0;111.0;
78521;SPS30;67819;51.972;5.678;2024-01-15T11:25:52;2.7;2.6;2.6;2.4;;;;5.0;104.0;
78521;SPS30;67819;51.972;5.678;2024-01-15T11:28:41;2.5;2.5;2.4;2.2;;;;5.0;102.0;
78521;SPS30;67819;51.972;5.678;2024-01-15T11:31:19;2.8;2.7;2.6;2.3;;;;5.0;95.0;
78521;SPS30;67819;51.972;5.678;2024-01-15T11:33:49;2.3;2.3;2.1;1.9;;;;5.0;84.0;
78521;SPS30;67819;51.972;5.678;2024-01-15T11:36:19;2.7;2.6;2.3;2.0;;;;5.0;69.0;
78521;SPS30;67819;51.972;5.678;2024-01-15T11:38:47;2.8;2.7;2.4;2.0;;;;6.0;58.0;
78521;SPS30;67819;51.972;5.678;2024-01-15T11:41:16;4.0;3.7;3.3;2.6;;;;6.0;59.0;
78521;SPS30;67819;51.972;5.678;2024-01-15T11:43:44;3.3;3.2;2.8;2.3;;;;6.0;59.0;
78521;SPS30;67819;51.972;5.678;2024-01-15T11:46:13;3.4;3.2;2.9;2.5;;;;6.0;52.0;
78521;SPS30;67819;51.972;5.678;2024-01-15T11:48:46;2.7;2.6;2.4;2.0;;;;6.0;52.0;
78521;SPS30;67819;51.972;5.678;2024-01-15T11:51:26;2.4;2.3;2.1;1.8;;;;6.0;53.0;
78521;SPS30;67819;51.972;5.678;2024-01-15T11:53:55;2.5;2.3;2.0;1.6;;;;6.0;53.0;
78521;SPS30;67819;51.972;5.678;2024-01-15T11:56:30;3.2;3.0;2.6;2.1;;;;6.0;53.0;
78521;SPS30;67819;51.972;5.678;2024-01-15T11:58:59;3.8;3.6;3.1;2.4;;;;6.0;54.0;
78521;SPS30;67819;51.972;5.678;2024-01-15T12:01:28;2.7;2.6;2.2;1.7;;;;6.0;54.0;
78521;SPS30;67819;51.972;5.678;2024-01-15T12:03:57;3.1;2.9;2.5;1.9;;;;7.0;54.0;
78521;SPS30;67819;51.972;5.678;2024-01-15T12:06:26;3.6;3.4;3.1;2.5;;;;7.0;54.0;
78521;SPS30;67819;51.972;5.678;2024-01-15T12:09:06;3.1;3.0;2.6;2.1;;;;7.0;79.0;
78521;SPS30;67819;51.972;5.678;2024-01-15T12:11:36;3.1;2.9;2.6;2.0;;;;7.0;71.0;
78521;SPS30;67819;51.972;5.678;2024-01-15T12:14:13;2.3;2.2;1.9;1.6;;;;7.0;62.0;
78521;SPS30;67819;51.972;5.678;2024-01-15T12:16:42;2.5;2.3;2.0;1.5;;;;6.0;53.0;
78521;SPS30;67819;51.972;5.678;2024-01-15T12:19:11;3.0;2.8;2.4;1.8;;;;6.0;50.0;
78521;SPS30;67819;51.972;5.678;2024-01-15T12:21:40;2.5;2.4;2.1;1.6;;;;6.0;51.0;
78521;SPS30;67819;51.972;5.678;2024-01-15T12:24:09;2.3;2.2;1.9;1.6;;;;7.0;56.0;